Sand Point, AK

1:32 AM AKDT on August 21, 2014 (GMT -0800)
Sand Point | Change Station
CLOSE
Current Station
Airport
Location: Sand Point,
Elevation: 23 ft
Nearby Weather Stations

Elev 23 ft 55.31 °N, 160.52 °W | Updated 16 minutes ago

Partly Cloudy
Partly Cloudy
54 °F
Feels Like 54 °F
N
5
Wind Variable Wind from SE

Today
High -- | Low -- °F
--% Chance of Precip.
Yesterday
High -- | Low -- °F
Precip. -- in
7:27 AM 10:01 PM
Waning Crescent, 15% visible
Pressure 30.20 in
Visibility 10.0 miles
Clouds Few 3700 ft
Dew Point 54 °F
Humidity 100%
Rainfall 0.00 in
Snow Depth Not available.
UV 0 out of 12
Pollen Not available.
Air Quality Not available.
Flu Activity Not available.
METAR PASD 210916Z AUTO 13004KT 10SM FEW037 12/12 A3020 RMK AO1

More Conditions Fewer Conditions

Pressure 30.20 in
Visibility 10.0 miles
Clouds Few 3700 ft
Dew Point 54 °F
Humidity 100%
Rainfall 0.00 in
Snow Depth Not available.
UV 0 out of 12
Pollen Not available.
Air Quality Not available.
Flu Activity Not available.
METAR PASD 210916Z AUTO 13004KT 10SM FEW037 12/12 A3020 RMK AO1

More Conditions Fewer Conditions

10-Day Weather Forecast

Almanac

Astronomy

Aug. 21, 2014 Rise Set
Actual Time 7:27 AM AKDT 10:01 PM AKDT
Civil Twilight 6:46 AM AKDT 10:42 PM AKDT
Nautical Twilight 5:53 AM AKDT 11:34 PM AKDT
Astronomical Twilight 4:46 AM AKDT 12:40 AM AKDT
Moon 3:50 AM AKDT 7:52 PM AKDT
Length of Visible Light 15h 55m
Length of Day
14h 34m
Tomorrow will be 4m 18s shorter.
Waning Crescent, 15% of the Moon is Illuminated
Today
Waning Crescent
Aug 25
New
Sep 2
First Quarter
Sep 8
Full
Sep 15
Last Quarter

Today's Extremes

State Highs State Lows

Community

WunderPhotos

Upload Photos

1,745,871 photos uploaded!

Nearby

Snow Depth

Station Depth Elevation
Port Graham 0 in 300 ft
Mcneil Canyon 1 in 1320 ft
Nuka Glacier 164 in 1250 ft
MF Bradley River 5 in 2300 ft
Cooper Lake 37 in 1200 ft

Earthquake Activity

City Distance Mag. Time & Date
No recent earthquake activity has been reported nearby.
Minimum magnitude displayed is 2.5.

Coastal Water Temperatures

Place Temperature
No Stations Reporting

Nearby Weather Stations